createdAt,value
2023-01-13T00:00:36.458Z,8.19
2023-01-13T00:03:03.494Z,8.16
2023-01-13T00:05:30.437Z,8.18
2023-01-13T00:07:57.230Z,8.06
2023-01-13T00:10:25.494Z,8.01
2023-01-13T00:12:53.537Z,8.00
2023-01-13T00:15:20.446Z,8.01
2023-01-13T00:17:48.776Z,7.90
2023-01-13T00:20:16.356Z,7.91
2023-01-13T00:22:43.221Z,7.87
2023-01-13T00:25:10.312Z,7.83
2023-01-13T00:27:39.017Z,7.85
2023-01-13T00:30:07.557Z,7.81
2023-01-13T00:32:34.628Z,7.71
2023-01-13T00:35:01.558Z,7.61
2023-01-13T00:37:28.494Z,7.55
2023-01-13T00:39:55.370Z,7.58
2023-01-13T00:42:42.487Z,7.53
2023-01-13T00:45:11.311Z,7.50
2023-01-13T00:47:38.157Z,7.41
2023-01-13T00:50:05.657Z,7.47
2023-01-13T00:52:32.650Z,7.48
2023-01-13T00:55:00.869Z,7.42
2023-01-13T00:57:28.005Z,7.55
2023-01-13T00:59:54.926Z,7.57
2023-01-13T01:02:23.304Z,7.56
2023-01-13T01:04:50.279Z,7.60
2023-01-13T01:07:17.409Z,7.67
2023-01-13T01:09:44.510Z,7.63
2023-01-13T01:12:11.496Z,7.62
2023-01-13T01:14:38.373Z,7.63
2023-01-13T01:17:05.246Z,7.58
2023-01-13T01:19:37.381Z,7.58
2023-01-13T01:22:04.516Z,7.68
2023-01-13T01:24:31.384Z,7.66
2023-01-13T01:26:58.218Z,7.74
2023-01-13T01:29:25.088Z,7.81
2023-01-13T01:31:51.919Z,7.86
2023-01-13T01:34:18.903Z,7.89
2023-01-13T01:36:47.170Z,7.89
2023-01-13T01:39:13.993Z,7.95
2023-01-13T01:42:00.999Z,7.97
2023-01-13T01:44:52.526Z,8.11
2023-01-13T01:47:20.475Z,8.18
2023-01-13T01:49:48.841Z,8.18
2023-01-13T01:52:23.859Z,8.11
2023-01-13T01:54:54.827Z,7.76
2023-01-13T01:57:27.763Z,7.67
2023-01-13T01:59:54.942Z,15.16
2023-01-13T02:02:22.639Z,16.70
2023-01-13T02:04:53.783Z,16.56
2023-01-13T02:07:26.350Z,16.41
2023-01-13T02:22:25.289Z,15.85
2023-01-13T02:25:12.408Z,16.17
2023-01-13T02:28:19.649Z,15.53
2023-01-13T02:31:12.014Z,15.74
2023-01-13T02:33:56.931Z,16.01
2023-01-13T02:36:30.535Z,15.84
2023-01-13T02:39:04.231Z,15.97
2023-01-13T02:42:31.605Z,16.21
2023-01-13T02:45:04.868Z,16.21
2023-01-13T02:47:36.712Z,16.03
2023-01-13T02:50:07.693Z,16.25
2023-01-13T02:52:38.428Z,16.51
2023-01-13T02:55:10.715Z,16.78
2023-01-13T02:57:39.754Z,16.48
2023-01-13T03:00:51.822Z,16.66
2023-01-13T03:03:20.238Z,16.86
2023-01-13T03:05:49.838Z,17.29
2023-01-13T03:08:27.199Z,17.18
2023-01-13T03:11:05.792Z,16.96
2023-01-13T03:14:09.052Z,16.67
2023-01-13T03:16:48.070Z,16.88
2023-01-13T03:19:25.334Z,16.55
2023-01-13T03:21:57.335Z,16.80
2023-01-13T03:24:30.531Z,16.47
2023-01-13T03:27:04.529Z,16.65
2023-01-13T03:30:27.112Z,16.41
2023-01-13T03:32:59.689Z,16.91
2023-01-13T03:35:31.191Z,16.48
2023-01-13T03:38:02.833Z,16.87
2023-01-13T03:40:33.467Z,15.86
2023-01-13T03:43:24.174Z,15.92
2023-01-13T03:45:57.457Z,16.17
2023-01-13T03:48:28.132Z,16.34
2023-01-13T03:51:03.194Z,16.13
2023-01-13T03:53:33.361Z,15.97
2023-01-13T03:56:07.621Z,15.71
2023-01-13T03:58:39.105Z,15.71
2023-01-13T04:01:13.000Z,15.96
2023-01-13T04:03:42.377Z,15.75
2023-01-13T04:06:17.080Z,16.20
2023-01-13T04:08:50.136Z,15.99
2023-01-13T04:11:22.564Z,15.60
2023-01-13T04:13:50.329Z,15.86
2023-01-13T04:16:17.596Z,16.22
2023-01-13T04:18:44.498Z,16.19
2023-01-13T04:21:12.766Z,15.94
2023-01-13T04:23:52.026Z,16.54
2023-01-13T04:26:19.837Z,15.94
2023-01-13T04:28:46.839Z,16.46
2023-01-13T04:31:13.921Z,16.18
2023-01-13T04:36:48.427Z,15.96
2023-01-13T04:39:46.748Z,15.99
2023-01-13T04:42:19.388Z,15.86
2023-01-13T04:45:05.960Z,15.80
2023-01-13T04:47:51.114Z,15.63
2023-01-13T04:50:21.035Z,15.54
2023-01-13T04:52:57.376Z,15.93
2023-01-13T04:56:03.451Z,15.89
2023-01-13T04:58:50.810Z,15.40
2023-01-13T05:01:24.102Z,16.20
2023-01-13T05:04:07.475Z,16.11
2023-01-13T05:06:58.872Z,16.21
2023-01-13T05:09:43.685Z,16.24
2023-01-13T05:12:29.647Z,16.08
2023-01-13T05:15:43.890Z,15.89
2023-01-13T05:18:20.277Z,15.83
2023-01-13T05:21:33.863Z,15.99
2023-01-13T05:24:19.330Z,16.09
2023-01-13T05:26:52.412Z,15.44
2023-01-13T05:29:30.808Z,15.40
2023-01-13T05:32:02.655Z,15.54
2023-01-13T05:34:30.108Z,15.60
2023-01-13T05:36:59.286Z,15.25
2023-01-13T05:39:51.622Z,15.53
2023-01-13T05:42:42.796Z,15.23
2023-01-13T05:45:11.058Z,15.15
2023-01-13T05:47:42.436Z,15.26
2023-01-13T05:50:29.399Z,15.50
2023-01-13T05:52:59.379Z,15.56
2023-01-13T05:55:26.260Z,15.42
2023-01-13T05:57:54.544Z,15.30
2023-01-13T06:00:21.762Z,15.62
2023-01-13T06:02:49.282Z,16.25
2023-01-13T06:05:16.296Z,16.03
2023-01-13T06:07:43.192Z,15.69
2023-01-13T06:10:11.174Z,15.45
2023-01-13T06:12:38.198Z,15.29
2023-01-13T06:15:07.576Z,15.17
2023-01-13T06:17:34.526Z,15.44
2023-01-13T06:20:01.599Z,15.54
2023-01-13T06:22:35.659Z,15.70
2023-01-13T06:25:03.989Z,15.03
2023-01-13T06:27:31.153Z,14.98
2023-01-13T06:29:58.368Z,15.34
2023-01-13T06:32:32.079Z,15.55
2023-01-13T06:35:05.460Z,15.41
2023-01-13T06:37:33.497Z,15.32
2023-01-13T06:40:02.853Z,15.20
2023-01-13T06:42:59.040Z,15.20
2023-01-13T06:45:30.038Z,15.17
2023-01-13T06:48:00.010Z,14.60
2023-01-13T06:50:28.366Z,14.63
2023-01-13T06:52:55.634Z,14.40
2023-01-13T06:55:22.665Z,14.25
2023-01-13T06:57:51.311Z,14.39
2023-01-13T07:00:19.795Z,14.36
2023-01-13T07:02:47.185Z,14.32
2023-01-13T07:05:16.050Z,14.51
2023-01-13T07:07:43.153Z,14.02
2023-01-13T07:10:13.211Z,14.43
2023-01-13T07:13:00.056Z,14.11
2023-01-13T07:15:27.260Z,13.96
2023-01-13T07:17:54.368Z,14.02
2023-01-13T07:20:23.027Z,14.39
2023-01-13T07:22:54.572Z,14.06
2023-01-13T07:25:21.761Z,14.03
2023-01-13T07:27:48.647Z,13.75
2023-01-13T07:30:15.694Z,14.07
2023-01-13T07:32:42.555Z,13.89
2023-01-13T07:35:09.753Z,14.24
2023-01-13T07:37:39.477Z,14.24
2023-01-13T07:40:08.063Z,14.07
2023-01-13T07:42:57.330Z,14.15
2023-01-13T07:45:24.301Z,14.36
2023-01-13T07:47:53.193Z,14.46
2023-01-13T07:50:21.729Z,14.14
2023-01-13T07:52:50.462Z,14.18
2023-01-13T07:55:17.481Z,14.36
2023-01-13T07:57:44.700Z,14.31
2023-01-13T08:00:13.138Z,14.58
2023-01-13T08:02:40.157Z,14.39
2023-01-13T08:05:08.021Z,14.37
2023-01-13T08:07:35.612Z,14.88
2023-01-13T08:10:06.999Z,14.88
2023-01-13T08:12:57.107Z,14.67
2023-01-13T08:15:24.304Z,14.77
2023-01-13T08:17:52.635Z,14.84
2023-01-13T08:20:21.519Z,14.56
2023-01-13T08:22:49.439Z,14.44
2023-01-13T08:25:18.782Z,14.47
2023-01-13T08:27:49.398Z,14.83
2023-01-13T08:30:18.440Z,14.84
2023-01-13T08:32:47.997Z,14.70
2023-01-13T08:35:17.502Z,14.50
2023-01-13T08:37:44.652Z,14.61
2023-01-13T08:40:13.468Z,14.82
2023-01-13T08:42:48.507Z,14.68
2023-01-13T08:45:18.404Z,14.80
2023-01-13T08:47:46.002Z,15.07
2023-01-13T08:50:14.589Z,15.02
2023-01-13T08:52:45.631Z,14.89
2023-01-13T08:55:18.346Z,14.74
2023-01-13T08:57:54.471Z,14.75
2023-01-13T09:00:25.323Z,14.69
2023-01-13T09:02:54.600Z,15.01
2023-01-13T09:05:26.629Z,14.47
2023-01-13T09:07:55.520Z,14.90
2023-01-13T09:10:24.049Z,15.25
2023-01-13T09:13:14.031Z,15.64
2023-01-13T09:15:43.965Z,15.56
2023-01-13T09:18:11.535Z,15.45
2023-01-13T09:20:40.670Z,16.15
2023-01-13T09:23:10.948Z,15.91
2023-01-13T09:25:39.879Z,15.99
2023-01-13T09:28:09.763Z,16.12
2023-01-13T09:30:38.577Z,15.71
2023-01-13T09:33:24.745Z,15.10
2023-01-13T09:35:53.432Z,15.04
2023-01-13T09:38:23.436Z,15.06
2023-01-13T09:40:51.760Z,15.04
2023-01-13T09:43:44.922Z,15.37
2023-01-13T09:46:39.035Z,15.56
2023-01-13T09:49:13.959Z,14.82
2023-01-13T09:51:49.866Z,15.19
2023-01-13T09:54:25.280Z,15.38
2023-01-13T09:56:53.440Z,15.15
2023-01-13T09:59:22.552Z,15.36
2023-01-13T10:01:57.513Z,15.25
2023-01-13T10:04:24.793Z,15.00
2023-01-13T10:06:56.765Z,15.20
2023-01-13T10:09:35.004Z,15.33
2023-01-13T10:12:24.482Z,15.58
2023-01-13T10:14:56.128Z,15.43
2023-01-13T10:17:31.395Z,15.67
2023-01-13T10:20:11.595Z,15.22
2023-01-13T10:23:01.990Z,15.92
2023-01-13T10:25:46.807Z,15.80
2023-01-13T10:28:18.523Z,16.33
2023-01-13T10:30:52.425Z,16.18
2023-01-13T11:03:54.600Z,15.77
2023-01-13T11:06:25.169Z,15.94
2023-01-13T11:08:55.372Z,15.90
2023-01-13T11:11:39.472Z,16.17
2023-01-13T11:14:26.830Z,16.01
2023-01-13T11:16:57.840Z,16.16
2023-01-13T11:19:29.446Z,15.63
2023-01-13T11:22:01.710Z,15.55
2023-01-13T11:24:36.913Z,15.42
2023-01-13T11:27:12.679Z,15.32
2023-01-13T11:29:51.389Z,16.31
2023-01-13T11:32:21.556Z,16.32
2023-01-13T11:34:54.548Z,16.07
2023-01-13T11:37:25.097Z,15.94
2023-01-13T11:40:01.763Z,15.96
2023-01-13T11:42:36.560Z,16.14
2023-01-13T11:45:13.186Z,16.06
2023-01-13T11:47:40.091Z,16.15
2023-01-13T11:50:18.930Z,15.99
2023-01-13T11:53:21.216Z,16.36
2023-01-13T11:55:57.526Z,16.43
2023-01-13T11:58:49.585Z,16.27
2023-01-13T12:01:36.583Z,16.37
2023-01-13T12:04:22.066Z,15.58
2023-01-13T12:06:57.327Z,15.75
2023-01-13T12:09:39.708Z,16.17
2023-01-13T12:12:20.351Z,15.77
2023-01-13T12:15:13.960Z,15.99
2023-01-13T12:17:51.884Z,16.19
2023-01-13T12:20:29.237Z,15.71
2023-01-13T12:23:02.784Z,15.69
2023-01-13T12:25:37.535Z,15.93
2023-01-13T12:28:11.579Z,16.10
2023-01-13T12:30:42.723Z,16.53
2023-01-13T12:35:55.247Z,16.75
2023-01-13T12:38:34.429Z,16.60
2023-01-13T12:41:15.053Z,17.29
2023-01-13T12:44:05.286Z,17.03
2023-01-13T12:46:53.469Z,17.09
2023-01-13T12:49:31.365Z,17.35
2023-01-13T12:52:20.031Z,16.37
2023-01-13T12:55:19.080Z,17.01
2023-01-13T12:58:02.917Z,17.44
2023-01-13T13:00:38.327Z,16.95
2023-01-13T13:03:32.423Z,17.26
2023-01-13T13:06:18.561Z,16.84
2023-01-13T13:08:58.435Z,16.76
2023-01-13T13:11:58.233Z,16.91
2023-01-13T13:15:04.655Z,16.87
2023-01-13T13:17:44.541Z,17.25
2023-01-13T13:20:50.846Z,16.92
2023-01-13T13:24:04.206Z,16.88
2023-01-13T13:26:54.213Z,16.74
2023-01-13T13:29:47.901Z,16.80
2023-01-13T13:33:09.562Z,16.79
2023-01-13T13:36:12.928Z,17.04
2023-01-13T13:39:39.982Z,17.53
2023-01-13T13:42:43.621Z,17.69
2023-01-13T13:45:40.015Z,17.31
2023-01-13T13:48:23.595Z,17.13
2023-01-13T13:50:57.715Z,16.65
2023-01-13T13:53:32.048Z,16.79
2023-01-13T13:56:06.704Z,16.90
2023-01-13T13:59:01.519Z,15.60
2023-01-13T14:05:21.613Z,16.67
2023-01-13T14:12:22.522Z,16.53
2023-01-13T14:14:51.388Z,15.91
2023-01-13T14:17:25.252Z,16.46
2023-01-13T14:19:52.868Z,16.70
2023-01-13T14:22:20.159Z,17.28
2023-01-13T14:24:51.164Z,17.20
2023-01-13T14:27:19.075Z,16.87
2023-01-13T14:29:46.006Z,16.46
2023-01-13T14:32:18.546Z,16.24
2023-01-13T14:34:45.708Z,16.21
2023-01-13T14:37:31.218Z,15.92
2023-01-13T14:39:58.104Z,15.09
2023-01-13T14:42:27.591Z,15.48
2023-01-13T14:44:56.257Z,15.67
2023-01-13T14:47:28.025Z,16.04
2023-01-13T14:50:03.203Z,16.28
2023-01-13T14:52:32.305Z,16.05
2023-01-13T14:55:23.720Z,15.64
2023-01-13T14:57:51.021Z,15.77
2023-01-13T15:00:27.642Z,15.88
2023-01-13T15:03:08.035Z,15.94
2023-01-13T15:05:42.762Z,15.57
2023-01-13T15:08:28.013Z,15.98
2023-01-13T15:11:00.047Z,16.33
2023-01-13T15:13:33.526Z,15.93
2023-01-13T15:16:03.137Z,15.64
2023-01-13T15:18:31.812Z,15.89
2023-01-13T15:20:58.706Z,15.55
2023-01-13T15:23:25.621Z,15.79
2023-01-13T15:25:52.518Z,16.03
2023-01-13T15:28:21.907Z,15.52
2023-01-13T15:30:50.176Z,16.03
2023-01-13T15:33:17.919Z,15.67
2023-01-13T15:35:47.685Z,15.67
2023-01-13T15:38:17.072Z,16.14
2023-01-13T15:40:44.015Z,15.34
2023-01-13T15:43:32.778Z,15.59
2023-01-13T15:46:18.477Z,15.45
2023-01-13T15:48:46.030Z,15.62
2023-01-13T15:51:21.207Z,15.61
2023-01-13T15:53:48.268Z,16.16
2023-01-13T15:56:21.785Z,15.82
2023-01-13T15:58:48.627Z,16.19
2023-01-13T16:01:15.628Z,15.88
2023-01-13T16:03:42.646Z,15.74
2023-01-13T16:06:16.304Z,15.85
2023-01-13T16:08:44.700Z,15.61
2023-01-13T16:11:12.100Z,15.78
2023-01-13T16:13:38.945Z,15.84
2023-01-13T16:16:15.988Z,15.46
2023-01-13T16:18:42.872Z,15.50
2023-01-13T16:21:12.228Z,15.83
2023-01-13T16:23:39.097Z,15.74
2023-01-13T16:26:07.662Z,15.67
2023-01-13T16:28:35.934Z,16.11
2023-01-13T16:31:19.933Z,16.36
2023-01-13T16:33:46.875Z,15.64
2023-01-13T16:36:15.912Z,16.24
2023-01-13T16:38:43.447Z,15.83
2023-01-13T16:41:11.853Z,15.99
2023-01-13T16:43:39.652Z,15.88
2023-01-13T16:46:25.414Z,15.86
2023-01-13T16:48:53.623Z,16.02
2023-01-13T16:51:21.461Z,16.27
2023-01-13T16:53:51.038Z,15.87
2023-01-13T16:56:27.190Z,16.10
2023-01-13T16:58:55.434Z,15.75
2023-01-13T17:01:25.006Z,16.30
2023-01-13T17:03:52.821Z,16.13
2023-01-13T17:06:24.346Z,15.97
2023-01-13T17:08:53.218Z,15.89
2023-01-13T17:11:20.771Z,15.69
2023-01-13T17:13:49.079Z,16.06
2023-01-13T17:16:21.847Z,16.12
2023-01-13T17:18:49.006Z,15.96
2023-01-13T17:21:16.300Z,15.80
2023-01-13T17:23:43.522Z,15.86
2023-01-13T17:29:27.781Z,15.80
2023-01-13T17:31:55.181Z,16.06
2023-01-13T17:34:22.348Z,15.64
2023-01-13T17:36:49.592Z,15.69
2023-01-13T17:39:18.091Z,16.02
2023-01-13T17:41:45.432Z,16.15
2023-01-13T17:44:14.550Z,15.56
2023-01-13T17:46:43.710Z,15.39
2023-01-13T17:49:11.292Z,15.70
2023-01-13T17:51:38.229Z,15.62
2023-01-13T17:54:05.390Z,15.51
2023-01-13T17:56:32.417Z,15.22
2023-01-13T17:58:59.670Z,15.54
2023-01-13T18:01:30.721Z,15.12
2023-01-13T18:03:59.457Z,15.06
2023-01-13T18:06:26.640Z,15.41
2023-01-13T18:08:53.650Z,15.34
2023-01-13T18:11:22.484Z,15.41
2023-01-13T18:13:52.453Z,15.47
2023-01-13T18:17:15.297Z,15.52
2023-01-13T18:20:02.312Z,15.49
2023-01-13T18:22:47.512Z,15.68
2023-01-13T18:25:32.988Z,15.83
2023-01-13T18:28:03.964Z,15.20
2023-01-13T18:30:31.056Z,15.62
2023-01-13T18:33:04.583Z,15.66
2023-01-13T18:36:53.985Z,15.49
2023-01-13T18:39:48.603Z,15.76
2023-01-13T18:42:56.963Z,15.60
2023-01-13T18:46:11.850Z,15.66
2023-01-13T18:49:12.742Z,15.22
2023-01-13T18:51:50.958Z,15.10
2023-01-13T18:54:46.052Z,15.44
2023-01-13T19:01:34.098Z,15.07
2023-01-13T19:04:44.656Z,15.33
2023-01-13T19:07:21.843Z,15.52
2023-01-13T19:09:50.062Z,15.55
2023-01-13T19:12:23.693Z,15.26
2023-01-13T19:14:50.726Z,15.61
2023-01-13T19:17:17.784Z,15.42
2023-01-13T19:19:46.199Z,15.23
2023-01-13T19:22:17.360Z,15.60
2023-01-13T19:24:44.386Z,15.45
2023-01-13T19:27:14.501Z,15.57
2023-01-13T19:29:45.492Z,15.51
2023-01-13T19:32:19.829Z,15.42
2023-01-13T19:34:49.185Z,15.48
2023-01-13T19:37:17.540Z,15.61
2023-01-13T19:44:04.306Z,15.35
2023-01-13T19:46:31.364Z,15.12
2023-01-13T19:48:58.354Z,15.44
2023-01-13T19:51:25.377Z,14.22
2023-01-13T19:53:53.730Z,13.97
2023-01-13T19:56:20.567Z,13.66
2023-01-13T19:58:50.801Z,13.53
2023-01-13T20:01:17.902Z,13.75
2023-01-13T20:03:46.122Z,13.74
2023-01-13T20:06:14.089Z,13.81
2023-01-13T20:08:42.103Z,13.54
2023-01-13T20:11:21.479Z,13.45
2023-01-13T20:13:48.820Z,13.51
2023-01-13T20:16:15.979Z,13.64
2023-01-13T20:18:42.881Z,13.60
2023-01-13T20:21:09.859Z,13.48
2023-01-13T20:23:36.877Z,13.36
2023-01-13T20:26:07.641Z,13.64
2023-01-13T20:28:38.828Z,13.29
2023-01-13T20:31:07.237Z,13.93
2023-01-13T20:33:34.447Z,13.60
2023-01-13T20:36:01.563Z,13.74
2023-01-13T20:38:28.734Z,13.81
2023-01-13T20:40:59.332Z,13.40
2023-01-13T20:43:27.463Z,13.64
2023-01-13T20:45:55.776Z,13.77
2023-01-13T20:48:22.763Z,13.49
2023-01-13T20:50:54.162Z,13.67
2023-01-13T20:53:21.149Z,13.48
2023-01-13T20:55:48.169Z,13.66
2023-01-13T20:58:15.176Z,13.52
2023-01-13T21:00:42.229Z,13.43
2023-01-13T21:03:10.520Z,13.15
2023-01-13T21:05:37.496Z,13.40
2023-01-13T21:08:04.867Z,13.44
2023-01-13T21:10:31.939Z,13.18
2023-01-13T21:16:28.279Z,13.23
2023-01-13T21:19:09.398Z,13.09
2023-01-13T21:21:36.636Z,13.12
2023-01-13T21:24:04.860Z,13.16
2023-01-13T21:26:32.667Z,13.16
2023-01-13T21:29:00.362Z,13.28
2023-01-13T21:31:27.925Z,13.07
2023-01-13T21:33:57.451Z,13.07
2023-01-13T21:36:24.916Z,13.07
2023-01-13T21:38:52.360Z,13.03
2023-01-13T21:41:39.266Z,13.06
2023-01-13T21:44:24.821Z,12.94
2023-01-13T21:47:10.586Z,12.95
2023-01-13T21:49:44.087Z,12.97
2023-01-13T21:52:11.809Z,12.98
2023-01-13T21:54:58.834Z,12.93
2023-01-13T21:57:27.304Z,12.96
2023-01-13T21:59:54.412Z,12.85
2023-01-13T22:02:35.686Z,12.99
2023-01-13T22:05:06.528Z,12.96
2023-01-13T22:07:35.104Z,12.83
2023-01-13T22:10:02.549Z,12.69
2023-01-13T22:12:30.059Z,12.64
2023-01-13T22:14:57.400Z,12.84
2023-01-13T22:17:26.720Z,12.79
2023-01-13T22:19:56.617Z,12.92
2023-01-13T22:22:26.060Z,12.86
2023-01-13T22:24:53.672Z,12.69
2023-01-13T22:27:22.788Z,12.73
2023-01-13T22:29:50.528Z,12.66
2023-01-13T22:32:18.565Z,12.70
2023-01-13T22:34:45.459Z,12.74
2023-01-13T22:37:12.759Z,12.37
2023-01-13T22:39:41.240Z,12.37
2023-01-13T22:42:10.205Z,12.30
2023-01-13T22:44:37.150Z,12.31
2023-01-13T22:47:04.189Z,12.43
2023-01-13T22:49:31.215Z,12.39
2023-01-13T22:51:58.111Z,12.36
2023-01-13T22:54:24.968Z,12.48
2023-01-13T22:56:53.342Z,12.43
2023-01-13T22:59:21.993Z,12.27
2023-01-13T23:01:48.954Z,12.10
2023-01-13T23:04:16.071Z,12.24
2023-01-13T23:06:43.110Z,12.16
2023-01-13T23:09:10.209Z,12.26
2023-01-13T23:11:37.220Z,12.15
2023-01-13T23:14:07.666Z,12.05
2023-01-13T23:16:36.849Z,12.09
2023-01-13T23:19:04.470Z,11.94
2023-01-13T23:21:36.559Z,11.86
2023-01-13T23:24:04.300Z,11.88
2023-01-13T23:26:32.669Z,11.86
2023-01-13T23:29:00.884Z,11.81
2023-01-13T23:31:30.005Z,11.71
2023-01-13T23:33:57.011Z,11.70
2023-01-13T23:36:25.408Z,11.62
2023-01-13T23:38:53.009Z,11.66
2023-01-13T23:41:21.709Z,11.58
2023-01-13T23:43:53.004Z,11.59
2023-01-13T23:46:20.655Z,11.62
2023-01-13T23:48:49.933Z,11.50
2023-01-13T23:51:17.685Z,11.39
2023-01-13T23:53:47.162Z,11.44
2023-01-13T23:56:16.165Z,11.47
2023-01-13T23:58:43.569Z,11.52
